createdAt,value
2018-12-06T00:01:38.949Z,100.00
2018-12-06T00:04:09.404Z,100.00
2018-12-06T00:06:39.896Z,100.00
2018-12-06T00:09:10.364Z,100.00
2018-12-06T00:11:40.917Z,100.00
2018-12-06T00:14:12.424Z,100.00
2018-12-06T00:16:43.008Z,100.00
2018-12-06T00:19:13.395Z,100.00
2018-12-06T00:21:43.828Z,100.00
2018-12-06T00:24:14.273Z,100.00
2018-12-06T00:26:44.725Z,100.00
2018-12-06T00:29:15.205Z,100.00
2018-12-06T00:31:45.792Z,100.00
2018-12-06T00:34:16.318Z,100.00
2018-12-06T00:36:46.867Z,100.00
2018-12-06T00:39:17.336Z,100.00
2018-12-06T00:41:47.826Z,100.00
2018-12-06T00:44:18.362Z,100.00
2018-12-06T00:46:48.808Z,100.00
2018-12-06T00:49:19.217Z,100.00
2018-12-06T00:51:49.716Z,100.00
2018-12-06T00:54:20.170Z,100.00
2018-12-06T00:56:50.616Z,100.00
2018-12-06T00:59:21.078Z,100.00
2018-12-06T01:01:53.354Z,100.00
2018-12-06T01:04:23.903Z,100.00
2018-12-06T01:06:54.396Z,100.00
2018-12-06T01:09:25.035Z,100.00
2018-12-06T01:11:55.765Z,100.00
2018-12-06T01:14:30.199Z,100.00
2018-12-06T01:17:00.709Z,100.00
2018-12-06T01:19:31.189Z,100.00
2018-12-06T01:22:01.689Z,100.00
2018-12-06T01:24:32.226Z,100.00
2018-12-06T01:27:02.655Z,100.00
2018-12-06T01:29:33.165Z,100.00
2018-12-06T01:32:03.694Z,100.00
2018-12-06T01:34:34.116Z,100.00
2018-12-06T01:37:04.605Z,100.00
2018-12-06T01:39:35.021Z,100.00
2018-12-06T01:42:05.576Z,100.00
2018-12-06T01:44:36.040Z,100.00
2018-12-06T01:47:06.667Z,100.00
2018-12-06T01:49:37.248Z,100.00
2018-12-06T01:52:07.834Z,100.00
2018-12-06T01:54:38.371Z,100.00
2018-12-06T01:57:08.813Z,100.00
2018-12-06T01:59:39.270Z,100.00
2018-12-06T02:02:09.734Z,100.00
2018-12-06T02:04:41.285Z,100.00
2018-12-06T02:07:11.783Z,100.00
2018-12-06T02:09:42.270Z,100.00
2018-12-06T02:12:13.003Z,100.00
2018-12-06T02:14:43.495Z,100.00
2018-12-06T02:17:14.504Z,100.00
2018-12-06T02:19:44.973Z,100.00
2018-12-06T02:22:15.430Z,100.00
2018-12-06T02:24:45.871Z,100.00
2018-12-06T02:27:16.553Z,100.00
2018-12-06T02:29:51.872Z,100.00
2018-12-06T02:32:22.408Z,100.00
2018-12-06T02:34:52.884Z,100.00
2018-12-06T02:37:23.542Z,100.00
2018-12-06T02:39:53.990Z,100.00
2018-12-06T02:42:24.484Z,100.00
2018-12-06T02:44:54.904Z,100.00
2018-12-06T02:47:25.385Z,100.00
2018-12-06T02:49:55.894Z,100.00
2018-12-06T02:52:26.623Z,100.00
2018-12-06T02:54:57.084Z,100.00
2018-12-06T02:57:27.703Z,100.00
2018-12-06T02:59:58.200Z,100.00
2018-12-06T03:02:28.705Z,100.00
2018-12-06T03:04:59.190Z,100.00
2018-12-06T03:07:29.649Z,100.00
2018-12-06T03:10:00.459Z,100.00
2018-12-06T03:12:31.242Z,100.00
2018-12-06T03:15:01.696Z,100.00
2018-12-06T03:17:34.222Z,100.00
2018-12-06T03:20:05.473Z,100.00
2018-12-06T03:22:36.256Z,100.00
2018-12-06T03:25:06.968Z,100.00
2018-12-06T03:27:37.470Z,100.00
2018-12-06T03:30:07.980Z,100.00
2018-12-06T03:32:38.385Z,100.00
2018-12-06T03:35:08.887Z,100.00
2018-12-06T03:37:39.372Z,100.00
2018-12-06T03:40:09.987Z,100.00
2018-12-06T03:42:40.513Z,100.00
2018-12-06T03:45:10.964Z,100.00
2018-12-06T03:47:42.223Z,100.00
2018-12-06T03:50:12.634Z,100.00
2018-12-06T03:52:43.181Z,100.00
2018-12-06T03:55:13.631Z,100.00
2018-12-06T03:57:44.085Z,100.00
2018-12-06T04:00:14.562Z,100.00
2018-12-06T04:02:45.032Z,100.00
2018-12-06T04:05:15.551Z,100.00
2018-12-06T04:07:46.096Z,100.00
2018-12-06T04:10:16.568Z,100.00
2018-12-06T04:12:47.424Z,100.00
2018-12-06T04:15:18.964Z,100.00
2018-12-06T04:17:49.415Z,100.00
2018-12-06T04:20:19.892Z,100.00
2018-12-06T04:22:50.376Z,100.00
2018-12-06T04:25:20.853Z,100.00
2018-12-06T04:27:51.429Z,100.00
2018-12-06T04:30:21.856Z,100.00
2018-12-06T04:32:52.352Z,100.00
2018-12-06T04:35:22.935Z,100.00
2018-12-06T04:37:53.417Z,100.00
2018-12-06T04:40:23.915Z,100.00
2018-12-06T04:42:54.377Z,100.00
2018-12-06T04:45:24.884Z,100.00
2018-12-06T04:47:55.344Z,100.00
2018-12-06T04:50:25.751Z,100.00
2018-12-06T04:52:56.237Z,100.00
2018-12-06T04:55:26.888Z,100.00
2018-12-06T04:57:57.364Z,100.00
2018-12-06T05:00:27.910Z,100.00
2018-12-06T05:02:58.409Z,100.00
2018-12-06T05:05:28.892Z,100.00
2018-12-06T05:07:59.391Z,100.00
2018-12-06T05:10:29.877Z,100.00
2018-12-06T05:13:00.488Z,100.00
2018-12-06T05:15:30.901Z,100.00
2018-12-06T05:18:01.408Z,100.00
2018-12-06T05:20:31.790Z,100.00
2018-12-06T05:23:02.167Z,100.00
2018-12-06T05:25:32.648Z,100.00
2018-12-06T05:28:03.164Z,100.00
2018-12-06T05:30:33.690Z,100.00
2018-12-06T05:33:04.437Z,100.00
2018-12-06T05:35:34.913Z,100.00
2018-12-06T05:38:05.527Z,100.00
2018-12-06T05:40:35.897Z,100.00
2018-12-06T05:43:06.376Z,100.00
2018-12-06T05:45:36.851Z,100.00
2018-12-06T05:48:07.446Z,100.00
2018-12-06T05:50:37.952Z,100.00
2018-12-06T05:53:08.711Z,100.00
2018-12-06T05:55:39.188Z,100.00
2018-12-06T05:58:11.782Z,100.00
2018-12-06T06:00:42.398Z,100.00
2018-12-06T06:03:12.936Z,100.00
2018-12-06T06:05:43.427Z,100.00
2018-12-06T06:08:13.956Z,100.00
2018-12-06T06:10:44.551Z,100.00
2018-12-06T06:13:15.339Z,100.00
2018-12-06T06:15:45.884Z,100.00
2018-12-06T06:18:16.490Z,100.00
2018-12-06T06:20:47.026Z,100.00
2018-12-06T06:23:17.481Z,100.00
2018-12-06T06:25:48.005Z,100.00
2018-12-06T06:28:18.478Z,100.00
2018-12-06T06:30:49.011Z,100.00
2018-12-06T06:33:20.765Z,100.00
2018-12-06T06:35:51.244Z,100.00
2018-12-06T06:38:21.794Z,100.00
2018-12-06T06:40:52.316Z,100.00
2018-12-06T06:43:22.855Z,100.00
2018-12-06T06:45:53.360Z,100.00
2018-12-06T06:48:23.911Z,100.00
2018-12-06T06:50:54.388Z,100.00
2018-12-06T06:53:25.044Z,100.00
2018-12-06T06:55:55.568Z,100.00
2018-12-06T06:58:26.145Z,100.00
2018-12-06T07:00:56.657Z,100.00
2018-12-06T07:03:27.132Z,100.00
2018-12-06T07:05:57.743Z,100.00
2018-12-06T07:08:28.285Z,100.00
2018-12-06T07:10:58.807Z,100.00
2018-12-06T07:13:29.521Z,100.00
2018-12-06T07:15:59.983Z,100.00
2018-12-06T07:22:14.907Z,100.00
2018-12-06T07:24:45.424Z,100.00
2018-12-06T07:27:15.915Z,100.00
2018-12-06T07:29:46.397Z,100.00
2018-12-06T07:32:16.910Z,100.00
2018-12-06T07:34:47.412Z,100.00
2018-12-06T07:37:17.899Z,100.00
2018-12-06T07:39:48.500Z,100.00
2018-12-06T07:42:19.101Z,100.00
2018-12-06T07:47:33.308Z,100.00
2018-12-06T07:50:03.802Z,100.00
2018-12-06T07:52:34.325Z,100.00
2018-12-06T07:55:04.914Z,100.00
2018-12-06T07:57:35.397Z,100.00
2018-12-06T08:00:07.195Z,100.00
2018-12-06T08:02:37.705Z,100.00
2018-12-06T08:07:52.326Z,98.32
2018-12-06T08:10:23.000Z,98.39
2018-12-06T08:12:53.502Z,96.80
2018-12-06T08:15:24.047Z,97.16
2018-12-06T08:17:54.583Z,96.64
2018-12-06T08:20:25.098Z,95.67
2018-12-06T08:22:55.543Z,92.29
2018-12-06T08:25:27.160Z,93.45
2018-12-06T08:30:39.007Z,88.54
2018-12-06T08:33:09.557Z,90.09
2018-12-06T08:35:40.048Z,90.66
2018-12-06T08:40:53.217Z,85.33
2018-12-06T08:43:23.712Z,84.88
2018-12-06T08:45:54.154Z,80.90
2018-12-06T08:48:24.656Z,82.54
2018-12-06T08:50:55.118Z,81.52
2018-12-06T08:53:25.672Z,80.96
2018-12-06T08:55:56.220Z,80.63
2018-12-06T08:58:27.744Z,81.68
2018-12-06T09:00:59.436Z,78.34
2018-12-06T09:03:29.871Z,81.20
2018-12-06T09:06:00.425Z,78.46
2018-12-06T09:08:30.927Z,78.80
2018-12-06T09:11:01.472Z,77.18
2018-12-06T09:13:32.040Z,77.96
2018-12-06T09:16:02.518Z,78.26
2018-12-06T09:18:33.998Z,76.11
2018-12-06T09:21:04.524Z,77.23
2018-12-06T09:23:35.005Z,73.97
2018-12-06T09:26:05.619Z,75.05
2018-12-06T09:28:36.128Z,72.75
2018-12-06T09:31:06.786Z,72.62
2018-12-06T09:33:46.656Z,72.42
2018-12-06T09:36:17.225Z,73.84
2018-12-06T09:38:47.797Z,73.68
2018-12-06T09:41:18.491Z,71.60
2018-12-06T09:43:49.001Z,73.37
2018-12-06T09:46:19.528Z,72.28
2018-12-06T09:48:50.203Z,74.67
2018-12-06T09:51:20.759Z,73.12
2018-12-06T09:53:51.240Z,71.79
2018-12-06T09:56:21.762Z,71.11
2018-12-06T09:58:52.367Z,68.28
2018-12-06T10:01:22.867Z,70.37
2018-12-06T10:03:53.362Z,70.06
2018-12-06T10:06:24.421Z,67.11
2018-12-06T10:08:54.926Z,66.89
2018-12-06T10:11:25.439Z,66.36
2018-12-06T10:13:55.994Z,68.30
2018-12-06T10:16:26.501Z,68.91
2018-12-06T10:18:57.180Z,69.18
2018-12-06T10:21:27.701Z,68.94
2018-12-06T10:23:58.189Z,70.60
2018-12-06T10:26:28.831Z,69.88
2018-12-06T10:28:59.361Z,70.36
2018-12-06T10:31:30.033Z,68.65
2018-12-06T10:34:00.523Z,65.68
2018-12-06T10:36:31.064Z,67.61
2018-12-06T10:39:01.714Z,68.83
2018-12-06T10:41:33.437Z,69.26
2018-12-06T10:44:03.936Z,65.55
2018-12-06T10:46:34.457Z,66.43
2018-12-06T10:49:04.934Z,66.42
2018-12-06T10:51:50.710Z,65.37
2018-12-06T10:54:21.236Z,63.77
2018-12-06T10:56:51.698Z,63.91
2018-12-06T10:59:22.215Z,66.46
2018-12-06T11:01:57.596Z,67.90
2018-12-06T11:04:42.273Z,68.46
2018-12-06T11:07:12.836Z,68.34
2018-12-06T11:09:43.269Z,68.57
2018-12-06T11:12:13.684Z,71.02
2018-12-06T11:14:44.204Z,73.65
2018-12-06T11:17:14.707Z,74.52
2018-12-06T11:19:45.505Z,76.54
2018-12-06T11:22:15.961Z,73.00
2018-12-06T11:24:46.477Z,70.71
2018-12-06T11:27:16.968Z,73.03
2018-12-06T11:29:47.576Z,73.67
2018-12-06T11:32:18.077Z,74.34
2018-12-06T11:34:48.559Z,74.29
2018-12-06T11:37:18.983Z,74.01
2018-12-06T11:39:49.704Z,74.31
2018-12-06T11:42:20.188Z,75.38
2018-12-06T11:44:50.698Z,75.54
2018-12-06T11:47:21.251Z,76.49
2018-12-06T11:49:51.757Z,76.76
2018-12-06T11:52:22.192Z,75.66
2018-12-06T11:54:52.659Z,75.10
2018-12-06T11:57:23.077Z,75.96
2018-12-06T11:59:53.594Z,76.73
2018-12-06T12:02:24.085Z,75.70
2018-12-06T12:04:54.557Z,79.14
2018-12-06T12:07:25.045Z,78.69
2018-12-06T12:09:55.564Z,75.24
2018-12-06T12:12:26.113Z,75.03
2018-12-06T12:14:58.744Z,77.26
2018-12-06T12:17:29.303Z,78.25
2018-12-06T12:19:59.950Z,79.99
2018-12-06T12:22:30.526Z,79.83
2018-12-06T12:25:00.969Z,79.53
2018-12-06T12:27:31.644Z,79.46
2018-12-06T12:30:02.155Z,79.05
2018-12-06T12:32:32.632Z,80.53
2018-12-06T12:35:03.106Z,80.47
2018-12-06T12:37:33.653Z,81.04
2018-12-06T12:40:04.199Z,80.18
2018-12-06T12:42:35.087Z,80.07
2018-12-06T12:45:05.795Z,78.15
2018-12-06T12:47:36.230Z,80.00
2018-12-06T12:50:09.725Z,81.54
2018-12-06T12:52:40.538Z,80.98
2018-12-06T12:55:10.932Z,82.60
2018-12-06T12:57:41.510Z,80.41
2018-12-06T13:00:12.039Z,81.38
2018-12-06T13:02:42.440Z,81.68
2018-12-06T13:05:12.946Z,82.08
2018-12-06T13:07:43.383Z,83.14
2018-12-06T13:10:13.850Z,80.60
2018-12-06T13:12:44.246Z,83.25
2018-12-06T13:15:14.784Z,83.99
2018-12-06T13:17:45.308Z,81.13
2018-12-06T13:20:16.037Z,79.32
2018-12-06T13:22:46.551Z,80.47
2018-12-06T13:25:17.031Z,80.70
2018-12-06T13:27:47.589Z,80.40
2018-12-06T13:30:18.064Z,81.83
2018-12-06T13:32:48.622Z,80.98
2018-12-06T13:35:19.104Z,83.10
2018-12-06T13:37:49.552Z,82.74
2018-12-06T13:40:20.300Z,82.52
2018-12-06T13:42:50.837Z,82.33
2018-12-06T13:45:21.258Z,82.42
2018-12-06T13:47:51.823Z,84.84
2018-12-06T13:50:22.403Z,85.29
2018-12-06T13:52:52.947Z,86.45
2018-12-06T13:55:23.435Z,87.14
2018-12-06T13:57:53.889Z,88.02
2018-12-06T14:00:24.713Z,84.81
2018-12-06T14:02:56.668Z,83.76
2018-12-06T14:05:27.078Z,84.16
2018-12-06T14:07:57.616Z,86.13
2018-12-06T14:10:28.071Z,86.48
2018-12-06T14:12:58.592Z,86.90
2018-12-06T14:15:29.070Z,85.06
2018-12-06T14:17:59.516Z,84.79
2018-12-06T14:20:30.278Z,84.80
2018-12-06T14:23:00.773Z,84.72
2018-12-06T14:25:31.175Z,86.31
2018-12-06T14:28:01.809Z,85.83
2018-12-06T14:30:32.511Z,86.75
2018-12-06T14:33:03.074Z,85.33
2018-12-06T14:35:33.533Z,85.66
2018-12-06T14:38:04.085Z,86.25
2018-12-06T14:40:34.738Z,85.61
2018-12-06T14:43:05.390Z,86.32
2018-12-06T14:45:36.159Z,86.09
2018-12-06T14:48:07.693Z,85.77
2018-12-06T14:50:38.176Z,84.92
2018-12-06T14:53:08.730Z,84.91
2018-12-06T14:55:39.158Z,84.35
2018-12-06T14:58:10.699Z,86.46
2018-12-06T15:00:41.422Z,85.99
2018-12-06T15:03:11.926Z,86.26
2018-12-06T15:05:42.393Z,86.14
2018-12-06T15:08:12.972Z,86.48
2018-12-06T15:10:43.430Z,87.04
2018-12-06T15:13:13.890Z,87.79
2018-12-06T15:15:44.427Z,87.80
2018-12-06T15:18:14.927Z,89.69
2018-12-06T15:20:45.627Z,89.53
2018-12-06T15:23:16.170Z,90.34
2018-12-06T15:25:46.762Z,91.17
2018-12-06T15:28:17.826Z,92.23
2018-12-06T15:30:48.395Z,92.31
2018-12-06T15:33:19.069Z,93.11
2018-12-06T15:35:49.563Z,93.74
2018-12-06T15:38:20.107Z,93.84
2018-12-06T15:40:50.947Z,94.37
2018-12-06T15:43:21.453Z,94.55
2018-12-06T15:45:52.057Z,94.44
2018-12-06T15:48:22.951Z,95.44
2018-12-06T15:50:53.512Z,95.78
2018-12-06T15:53:24.076Z,95.51
2018-12-06T15:55:54.694Z,96.52
2018-12-06T15:58:25.720Z,95.95
2018-12-06T16:00:56.684Z,96.37
2018-12-06T16:03:27.184Z,96.77
2018-12-06T16:05:57.729Z,96.32
2018-12-06T16:08:28.410Z,96.21
2018-12-06T16:10:58.935Z,97.26
2018-12-06T16:13:29.536Z,97.39
2018-12-06T16:16:00.177Z,98.18
2018-12-06T16:18:30.629Z,99.05
2018-12-06T16:21:01.441Z,98.80
2018-12-06T16:23:31.999Z,98.80
2018-12-06T16:26:02.497Z,99.35
2018-12-06T16:28:33.099Z,99.88
2018-12-06T16:31:03.589Z,99.99
2018-12-06T16:33:34.166Z,99.98
2018-12-06T16:36:04.575Z,99.51
2018-12-06T16:38:35.156Z,99.76
2018-12-06T16:41:05.921Z,98.56
2018-12-06T16:43:36.418Z,100.00
2018-12-06T16:46:06.921Z,98.70
2018-12-06T16:48:38.887Z,98.50
2018-12-06T16:51:09.374Z,99.24
2018-12-06T16:53:39.933Z,98.82
2018-12-06T16:56:10.486Z,98.33
2018-12-06T16:58:40.985Z,98.24
2018-12-06T17:01:11.653Z,98.23
2018-12-06T17:03:42.153Z,98.37
2018-12-06T17:06:12.641Z,98.06
2018-12-06T17:08:44.022Z,98.42
2018-12-06T17:11:14.495Z,97.40
2018-12-06T17:13:45.007Z,97.86
2018-12-06T17:16:15.432Z,97.57
2018-12-06T17:18:45.979Z,98.18
2018-12-06T17:21:16.794Z,97.83
2018-12-06T17:23:47.294Z,98.78
2018-12-06T17:26:17.865Z,98.57
2018-12-06T17:28:48.426Z,99.35
2018-12-06T17:31:18.981Z,98.54
2018-12-06T17:33:49.467Z,98.46
2018-12-06T17:36:20.007Z,99.16
2018-12-06T17:38:50.534Z,99.07
2018-12-06T17:41:21.335Z,99.53
2018-12-06T17:43:51.772Z,99.70
2018-12-06T17:46:22.262Z,99.47
2018-12-06T17:48:52.728Z,98.89
2018-12-06T17:51:23.290Z,98.82
2018-12-06T17:53:54.263Z,98.40
2018-12-06T17:56:24.982Z,99.57
2018-12-06T17:58:55.465Z,98.94
2018-12-06T18:01:26.216Z,99.84
2018-12-06T18:03:56.800Z,99.64
2018-12-06T18:06:27.303Z,100.00
2018-12-06T18:08:57.954Z,100.00
2018-12-06T18:11:28.528Z,100.00
2018-12-06T18:13:59.053Z,100.00
2018-12-06T18:16:29.526Z,100.00
2018-12-06T18:19:00.143Z,100.00
2018-12-06T18:21:31.034Z,100.00
2018-12-06T18:24:01.542Z,100.00
2018-12-06T18:26:33.510Z,100.00
2018-12-06T18:29:04.581Z,100.00
2018-12-06T18:31:35.144Z,100.00
2018-12-06T18:34:05.557Z,100.00
2018-12-06T18:36:36.273Z,100.00
2018-12-06T18:39:08.980Z,100.00
2018-12-06T18:41:39.840Z,100.00
2018-12-06T18:44:10.228Z,100.00
2018-12-06T18:46:40.736Z,100.00
2018-12-06T18:49:11.256Z,100.00
2018-12-06T18:51:41.758Z,100.00
2018-12-06T18:54:12.294Z,100.00
2018-12-06T18:56:42.801Z,100.00
2018-12-06T18:59:13.343Z,100.00
2018-12-06T19:01:43.999Z,100.00
2018-12-06T19:04:14.524Z,100.00
2018-12-06T19:06:45.826Z,100.00
2018-12-06T19:09:16.398Z,100.00
2018-12-06T19:11:46.900Z,100.00
2018-12-06T19:14:21.741Z,100.00
2018-12-06T19:16:49.901Z,100.00
2018-12-06T19:19:20.434Z,100.00
2018-12-06T19:21:51.029Z,100.00
2018-12-06T19:24:21.596Z,100.00
2018-12-06T19:26:52.045Z,100.00
2018-12-06T19:29:22.609Z,100.00
2018-12-06T19:31:54.095Z,100.00
2018-12-06T19:34:24.542Z,100.00
2018-12-06T19:36:55.153Z,100.00
2018-12-06T19:39:25.688Z,100.00
2018-12-06T19:41:56.433Z,100.00
2018-12-06T19:44:26.915Z,100.00
2018-12-06T19:46:57.440Z,100.00
2018-12-06T19:49:27.965Z,100.00
2018-12-06T19:51:58.442Z,100.00
2018-12-06T19:54:28.911Z,100.00
2018-12-06T19:56:59.453Z,100.00
2018-12-06T19:59:29.886Z,100.00
2018-12-06T20:02:00.645Z,100.00
2018-12-06T20:04:31.233Z,100.00
2018-12-06T20:07:01.737Z,100.00
2018-12-06T20:09:32.173Z,100.00
2018-12-06T20:12:02.686Z,100.00
2018-12-06T20:14:33.151Z,100.00
2018-12-06T20:17:03.649Z,100.00
2018-12-06T20:19:35.453Z,100.00
2018-12-06T20:22:06.141Z,100.00
2018-12-06T20:24:36.676Z,100.00
2018-12-06T20:27:07.114Z,100.00
2018-12-06T20:29:37.623Z,100.00
2018-12-06T20:32:14.477Z,100.00
2018-12-06T20:34:40.594Z,100.00
2018-12-06T20:37:11.102Z,100.00
2018-12-06T20:39:41.869Z,100.00
2018-12-06T20:42:12.425Z,100.00
2018-12-06T20:44:43.013Z,100.00
2018-12-06T20:47:17.466Z,100.00
2018-12-06T20:49:48.067Z,100.00
2018-12-06T20:52:18.545Z,100.00
2018-12-06T20:54:49.055Z,100.00
2018-12-06T20:57:19.622Z,100.00
2018-12-06T20:59:50.109Z,100.00
2018-12-06T21:02:20.746Z,100.00
2018-12-06T21:04:51.197Z,100.00
2018-12-06T21:07:21.753Z,100.00
2018-12-06T21:09:52.308Z,100.00
2018-12-06T21:12:22.812Z,100.00
2018-12-06T21:14:53.261Z,100.00
2018-12-06T21:17:23.701Z,100.00
2018-12-06T21:19:54.202Z,100.00
2018-12-06T21:22:24.907Z,100.00
2018-12-06T21:24:55.402Z,100.00
2018-12-06T21:27:25.843Z,100.00
2018-12-06T21:29:56.390Z,100.00
2018-12-06T21:32:26.864Z,100.00
2018-12-06T21:34:57.317Z,100.00
2018-12-06T21:37:27.834Z,100.00
2018-12-06T21:40:00.385Z,100.00
2018-12-06T21:42:31.008Z,100.00
2018-12-06T21:45:01.471Z,100.00
2018-12-06T21:47:31.988Z,100.00
2018-12-06T21:50:02.398Z,100.00
2018-12-06T21:52:32.912Z,100.00
2018-12-06T21:55:03.345Z,100.00
2018-12-06T21:57:33.944Z,100.00
2018-12-06T22:00:04.785Z,100.00
2018-12-06T22:02:35.480Z,100.00
2018-12-06T22:05:06.267Z,100.00
2018-12-06T22:07:36.795Z,100.00
2018-12-06T22:10:08.601Z,100.00
2018-12-06T22:12:39.130Z,100.00
2018-12-06T22:15:09.611Z,100.00
2018-12-06T22:17:40.119Z,100.00
2018-12-06T22:20:10.545Z,100.00
2018-12-06T22:22:41.254Z,100.00
2018-12-06T22:25:11.744Z,100.00
2018-12-06T22:27:42.245Z,100.00
2018-12-06T22:30:12.708Z,100.00
2018-12-06T22:32:43.179Z,100.00
2018-12-06T22:35:13.625Z,100.00
2018-12-06T22:37:44.184Z,100.00
2018-12-06T22:40:14.766Z,100.00
2018-12-06T22:42:45.433Z,100.00
2018-12-06T22:46:24.586Z,100.00
2018-12-06T22:48:55.134Z,100.00
2018-12-06T22:51:25.668Z,100.00
2018-12-06T22:53:56.113Z,100.00
2018-12-06T22:56:26.537Z,100.00
2018-12-06T22:58:57.093Z,100.00
2018-12-06T23:01:32.492Z,100.00
2018-12-06T23:04:03.094Z,100.00
2018-12-06T23:06:33.572Z,100.00
2018-12-06T23:09:06.161Z,100.00
2018-12-06T23:11:39.646Z,100.00
2018-12-06T23:14:10.185Z,100.00
2018-12-06T23:16:40.772Z,100.00
2018-12-06T23:19:11.281Z,100.00
2018-12-06T23:21:41.723Z,100.00
2018-12-06T23:24:13.753Z,100.00
2018-12-06T23:26:45.557Z,100.00
2018-12-06T23:29:16.055Z,100.00
2018-12-06T23:31:46.562Z,100.00
2018-12-06T23:34:17.072Z,100.00
2018-12-06T23:36:47.526Z,100.00
2018-12-06T23:39:18.045Z,100.00
2018-12-06T23:41:48.531Z,100.00
2018-12-06T23:44:19.249Z,100.00
2018-12-06T23:46:49.756Z,100.00
2018-12-06T23:49:20.198Z,100.00
2018-12-06T23:51:50.878Z,100.00
2018-12-06T23:54:21.374Z,100.00
2018-12-06T23:56:51.804Z,100.00
2018-12-06T23:59:22.333Z,100.00
